sensor_id;sensor_type;location;lat;lon;timestamp;P1;durP1;ratioP1;P2;durP2;ratioP2
5137;SDS011;53959;53.626;11.410;2023-09-08T00:01:49;1843.90;;;838.47;;
5137;SDS011;53959;53.626;11.410;2023-09-08T00:04:14;1837.47;;;839.23;;
5137;SDS011;53959;53.626;11.410;2023-09-08T00:06:40;1826.97;;;836.77;;
5137;SDS011;53959;53.626;11.410;2023-09-08T00:09:06;1833.27;;;833.70;;
5137;SDS011;53959;53.626;11.410;2023-09-08T00:11:32;1831.37;;;834.73;;
5137;SDS011;53959;53.626;11.410;2023-09-08T00:13:57;1833.83;;;836.20;;
5137;SDS011;53959;53.626;11.410;2023-09-08T00:16:23;1826.47;;;837.63;;
5137;SDS011;53959;53.626;11.410;2023-09-08T00:18:49;1842.67;;;839.30;;
5137;SDS011;53959;53.626;11.410;2023-09-08T00:21:14;1829.77;;;835.40;;
5137;SDS011;53959;53.626;11.410;2023-09-08T00:23:40;1828.47;;;838.50;;
5137;SDS011;53959;53.626;11.410;2023-09-08T00:26:05;1834.37;;;837.77;;
5137;SDS011;53959;53.626;11.410;2023-09-08T00:28:31;1840.57;;;840.13;;
5137;SDS011;53959;53.626;11.410;2023-09-08T00:30:57;1828.47;;;838.17;;
5137;SDS011;53959;53.626;11.410;2023-09-08T00:33:25;1823.50;;;835.20;;
5137;SDS011;53959;53.626;11.410;2023-09-08T00:35:50;1842.37;;;838.93;;
5137;SDS011;53959;53.626;11.410;2023-09-08T00:38:16;1852.90;;;840.30;;
5137;SDS011;53959;53.626;11.410;2023-09-08T00:40:42;1843.20;;;839.37;;
5137;SDS011;53959;53.626;11.410;2023-09-08T00:43:07;1827.30;;;837.23;;
5137;SDS011;53959;53.626;11.410;2023-09-08T00:45:32;1831.30;;;835.87;;
5137;SDS011;53959;53.626;11.410;2023-09-08T00:48:03;1829.60;;;837.37;;
5137;SDS011;53959;53.626;11.410;2023-09-08T00:50:29;1825.83;;;837.83;;
5137;SDS011;53959;53.626;11.410;2023-09-08T00:52:55;1835.23;;;837.57;;
5137;SDS011;53959;53.626;11.410;2023-09-08T00:55:20;1833.27;;;839.00;;
5137;SDS011;53959;53.626;11.410;2023-09-08T00:57:45;1835.90;;;836.83;;
5137;SDS011;53959;53.626;11.410;2023-09-08T01:00:11;1844.30;;;838.03;;
5137;SDS011;53959;53.626;11.410;2023-09-08T01:02:37;1843.77;;;837.43;;
5137;SDS011;53959;53.626;11.410;2023-09-08T01:05:03;1840.17;;;836.70;;
5137;SDS011;53959;53.626;11.410;2023-09-08T01:07:29;1840.90;;;836.60;;
5137;SDS011;53959;53.626;11.410;2023-09-08T01:09:56;1837.07;;;836.00;;
5137;SDS011;53959;53.626;11.410;2023-09-08T01:12:21;1841.43;;;837.53;;
5137;SDS011;53959;53.626;11.410;2023-09-08T01:14:47;1843.83;;;836.83;;
5137;SDS011;53959;53.626;11.410;2023-09-08T01:17:12;1846.27;;;835.97;;
5137;SDS011;53959;53.626;11.410;2023-09-08T01:19:38;1858.67;;;837.73;;
5137;SDS011;53959;53.626;11.410;2023-09-08T01:25:04;1837.77;;;837.80;;
5137;SDS011;53959;53.626;11.410;2023-09-08T01:27:38;1840.43;;;837.90;;
5137;SDS011;53959;53.626;11.410;2023-09-08T01:30:06;1853.53;;;836.67;;
5137;SDS011;53959;53.626;11.410;2023-09-08T01:32:32;1851.27;;;836.47;;
5137;SDS011;53959;53.626;11.410;2023-09-08T01:34:57;1853.33;;;838.00;;
5137;SDS011;53959;53.626;11.410;2023-09-08T01:37:24;1845.30;;;839.43;;
5137;SDS011;53959;53.626;11.410;2023-09-08T01:39:50;1851.33;;;840.83;;
5137;SDS011;53959;53.626;11.410;2023-09-08T01:42:15;1843.83;;;838.10;;
5137;SDS011;53959;53.626;11.410;2023-09-08T01:44:41;1851.53;;;838.23;;
5137;SDS011;53959;53.626;11.410;2023-09-08T01:47:06;1846.93;;;835.37;;
5137;SDS011;53959;53.626;11.410;2023-09-08T01:49:31;1853.90;;;836.23;;
5137;SDS011;53959;53.626;11.410;2023-09-08T01:51:57;1818.27;;;833.20;;
5137;SDS011;53959;53.626;11.410;2023-09-08T01:54:22;1862.07;;;838.10;;
5137;SDS011;53959;53.626;11.410;2023-09-08T01:56:48;1852.60;;;836.80;;
5137;SDS011;53959;53.626;11.410;2023-09-08T01:59:13;1855.73;;;836.77;;
5137;SDS011;53959;53.626;11.410;2023-09-08T02:01:39;1855.77;;;839.10;;
5137;SDS011;53959;53.626;11.410;2023-09-08T02:04:06;1850.97;;;837.10;;
5137;SDS011;53959;53.626;11.410;2023-09-08T02:06:32;1855.13;;;839.07;;
5137;SDS011;53959;53.626;11.410;2023-09-08T02:08:57;1845.37;;;836.40;;
5137;SDS011;53959;53.626;11.410;2023-09-08T02:11:24;1848.90;;;838.90;;
5137;SDS011;53959;53.626;11.410;2023-09-08T02:13:49;1842.10;;;837.83;;
5137;SDS011;53959;53.626;11.410;2023-09-08T02:16:15;1840.63;;;835.73;;
5137;SDS011;53959;53.626;11.410;2023-09-08T02:18:41;1845.57;;;837.67;;
5137;SDS011;53959;53.626;11.410;2023-09-08T02:21:07;1851.20;;;838.53;;
5137;SDS011;53959;53.626;11.410;2023-09-08T02:23:32;1854.67;;;838.73;;
5137;SDS011;53959;53.626;11.410;2023-09-08T02:25:58;1853.03;;;837.30;;
5137;SDS011;53959;53.626;11.410;2023-09-08T02:28:24;1854.50;;;838.67;;
5137;SDS011;53959;53.626;11.410;2023-09-08T02:30:50;1853.90;;;836.37;;
5137;SDS011;53959;53.626;11.410;2023-09-08T02:33:16;1871.40;;;838.17;;
5137;SDS011;53959;53.626;11.410;2023-09-08T02:35:41;1865.23;;;838.07;;
5137;SDS011;53959;53.626;11.410;2023-09-08T02:38:08;1879.50;;;838.57;;
5137;SDS011;53959;53.626;11.410;2023-09-08T02:40:33;1877.53;;;836.67;;
5137;SDS011;53959;53.626;11.410;2023-09-08T02:43:00;1873.97;;;838.30;;
5137;SDS011;53959;53.626;11.410;2023-09-08T02:45:26;1878.03;;;839.17;;
5137;SDS011;53959;53.626;11.410;2023-09-08T02:47:52;1885.17;;;838.23;;
5137;SDS011;53959;53.626;11.410;2023-09-08T02:50:17;1895.83;;;840.77;;
5137;SDS011;53959;53.626;11.410;2023-09-08T02:52:43;1904.80;;;839.47;;
5137;SDS011;53959;53.626;11.410;2023-09-08T02:55:09;1893.23;;;837.40;;
5137;SDS011;53959;53.626;11.410;2023-09-08T02:57:34;1892.30;;;837.50;;
5137;SDS011;53959;53.626;11.410;2023-09-08T03:00:00;1893.00;;;836.40;;
5137;SDS011;53959;53.626;11.410;2023-09-08T03:02:26;1894.10;;;837.73;;
5137;SDS011;53959;53.626;11.410;2023-09-08T03:04:52;1891.03;;;838.43;;
5137;SDS011;53959;53.626;11.410;2023-09-08T03:07:17;1894.73;;;836.50;;
5137;SDS011;53959;53.626;11.410;2023-09-08T03:09:43;1894.83;;;840.13;;
5137;SDS011;53959;53.626;11.410;2023-09-08T03:12:08;1899.37;;;839.17;;
5137;SDS011;53959;53.626;11.410;2023-09-08T03:14:34;1895.50;;;837.57;;
5137;SDS011;53959;53.626;11.410;2023-09-08T03:16:59;1904.07;;;839.87;;
5137;SDS011;53959;53.626;11.410;2023-09-08T03:19:25;1896.23;;;834.90;;
5137;SDS011;53959;53.626;11.410;2023-09-08T03:21:51;1895.33;;;836.57;;
5137;SDS011;53959;53.626;11.410;2023-09-08T03:24:16;1895.80;;;835.27;;
5137;SDS011;53959;53.626;11.410;2023-09-08T03:26:41;1904.40;;;836.27;;
5137;SDS011;53959;53.626;11.410;2023-09-08T03:29:07;1904.90;;;838.23;;
5137;SDS011;53959;53.626;11.410;2023-09-08T03:31:32;1904.30;;;836.27;;
5137;SDS011;53959;53.626;11.410;2023-09-08T03:33:57;1901.30;;;836.67;;
5137;SDS011;53959;53.626;11.410;2023-09-08T03:36:23;1909.30;;;837.97;;
5137;SDS011;53959;53.626;11.410;2023-09-08T03:38:49;1907.70;;;836.07;;
5137;SDS011;53959;53.626;11.410;2023-09-08T03:41:15;1908.87;;;839.17;;
5137;SDS011;53959;53.626;11.410;2023-09-08T03:43:41;1911.73;;;838.50;;
5137;SDS011;53959;53.626;11.410;2023-09-08T03:46:06;1909.10;;;837.23;;
5137;SDS011;53959;53.626;11.410;2023-09-08T03:48:32;1912.40;;;839.23;;
5137;SDS011;53959;53.626;11.410;2023-09-08T03:50:57;1901.07;;;837.03;;
5137;SDS011;53959;53.626;11.410;2023-09-08T03:53:23;1903.40;;;836.57;;
5137;SDS011;53959;53.626;11.410;2023-09-08T03:55:48;1908.93;;;841.17;;
5137;SDS011;53959;53.626;11.410;2023-09-08T03:58:14;1905.00;;;835.93;;
5137;SDS011;53959;53.626;11.410;2023-09-08T04:00:40;1913.80;;;837.97;;
5137;SDS011;53959;53.626;11.410;2023-09-08T04:03:06;1911.40;;;840.17;;
5137;SDS011;53959;53.626;11.410;2023-09-08T04:05:32;1912.70;;;838.60;;
5137;SDS011;53959;53.626;11.410;2023-09-08T04:07:58;1907.70;;;837.17;;
5137;SDS011;53959;53.626;11.410;2023-09-08T04:10:23;1909.00;;;837.47;;
5137;SDS011;53959;53.626;11.410;2023-09-08T04:12:49;1914.93;;;839.50;;
5137;SDS011;53959;53.626;11.410;2023-09-08T04:15:15;1902.60;;;835.97;;
5137;SDS011;53959;53.626;11.410;2023-09-08T04:17:40;1909.60;;;837.20;;
5137;SDS011;53959;53.626;11.410;2023-09-08T04:20:06;1900.37;;;835.27;;
5137;SDS011;53959;53.626;11.410;2023-09-08T04:22:33;1905.33;;;837.97;;
5137;SDS011;53959;53.626;11.410;2023-09-08T04:24:59;1904.57;;;837.13;;
5137;SDS011;53959;53.626;11.410;2023-09-08T04:27:27;1897.97;;;836.17;;
5137;SDS011;53959;53.626;11.410;2023-09-08T04:29:52;1986.13;;;841.50;;
5137;SDS011;53959;53.626;11.410;2023-09-08T04:32:17;1910.83;;;837.70;;
5137;SDS011;53959;53.626;11.410;2023-09-08T04:34:43;1908.17;;;835.90;;
5137;SDS011;53959;53.626;11.410;2023-09-08T04:37:08;1913.97;;;837.60;;
5137;SDS011;53959;53.626;11.410;2023-09-08T04:39:34;1911.37;;;837.87;;
5137;SDS011;53959;53.626;11.410;2023-09-08T04:42:00;1912.67;;;837.80;;
5137;SDS011;53959;53.626;11.410;2023-09-08T04:44:26;1898.37;;;836.97;;
5137;SDS011;53959;53.626;11.410;2023-09-08T04:46:53;1905.90;;;837.47;;
5137;SDS011;53959;53.626;11.410;2023-09-08T04:49:18;1906.37;;;836.73;;
5137;SDS011;53959;53.626;11.410;2023-09-08T04:51:44;1915.00;;;839.83;;
5137;SDS011;53959;53.626;11.410;2023-09-08T04:54:10;1915.50;;;838.70;;
5137;SDS011;53959;53.626;11.410;2023-09-08T04:56:38;1921.03;;;840.00;;
5137;SDS011;53959;53.626;11.410;2023-09-08T04:59:04;1921.00;;;838.00;;
5137;SDS011;53959;53.626;11.410;2023-09-08T05:01:30;1923.57;;;837.87;;
5137;SDS011;53959;53.626;11.410;2023-09-08T05:03:58;1916.67;;;837.83;;
5137;SDS011;53959;53.626;11.410;2023-09-08T05:06:27;1909.63;;;837.97;;
5137;SDS011;53959;53.626;11.410;2023-09-08T05:08:52;1921.20;;;838.67;;
5137;SDS011;53959;53.626;11.410;2023-09-08T05:11:18;1922.83;;;837.57;;
5137;SDS011;53959;53.626;11.410;2023-09-08T05:13:48;1902.43;;;833.27;;
5137;SDS011;53959;53.626;11.410;2023-09-08T05:16:13;1904.87;;;837.43;;
5137;SDS011;53959;53.626;11.410;2023-09-08T05:18:47;1909.07;;;835.77;;
5137;SDS011;53959;53.626;11.410;2023-09-08T05:21:12;1916.97;;;838.30;;
5137;SDS011;53959;53.626;11.410;2023-09-08T05:23:39;1922.07;;;837.97;;
5137;SDS011;53959;53.626;11.410;2023-09-08T05:26:05;1913.73;;;835.33;;
5137;SDS011;53959;53.626;11.410;2023-09-08T05:28:30;1931.50;;;839.57;;
5137;SDS011;53959;53.626;11.410;2023-09-08T05:30:56;1924.43;;;836.83;;
5137;SDS011;53959;53.626;11.410;2023-09-08T05:33:21;1933.93;;;839.53;;
5137;SDS011;53959;53.626;11.410;2023-09-08T05:35:46;1926.33;;;836.83;;
5137;SDS011;53959;53.626;11.410;2023-09-08T05:38:13;1927.03;;;836.23;;
5137;SDS011;53959;53.626;11.410;2023-09-08T05:40:39;1919.60;;;837.63;;
5137;SDS011;53959;53.626;11.410;2023-09-08T05:43:05;1924.60;;;839.17;;
5137;SDS011;53959;53.626;11.410;2023-09-08T05:45:33;1921.03;;;837.57;;
5137;SDS011;53959;53.626;11.410;2023-09-08T05:47:59;1928.80;;;837.20;;
5137;SDS011;53959;53.626;11.410;2023-09-08T05:50:26;1926.07;;;836.33;;
5137;SDS011;53959;53.626;11.410;2023-09-08T05:52:52;1934.43;;;837.53;;
5137;SDS011;53959;53.626;11.410;2023-09-08T05:55:18;1931.97;;;838.03;;
5137;SDS011;53959;53.626;11.410;2023-09-08T05:57:43;1942.07;;;840.77;;
5137;SDS011;53959;53.626;11.410;2023-09-08T06:00:09;1943.80;;;838.57;;
5137;SDS011;53959;53.626;11.410;2023-09-08T06:02:45;1923.20;;;835.20;;
5137;SDS011;53959;53.626;11.410;2023-09-08T06:05:13;1920.13;;;834.67;;
5137;SDS011;53959;53.626;11.410;2023-09-08T06:07:39;1941.43;;;839.70;;
5137;SDS011;53959;53.626;11.410;2023-09-08T06:10:05;1942.87;;;840.53;;
5137;SDS011;53959;53.626;11.410;2023-09-08T06:12:31;1940.60;;;837.53;;
5137;SDS011;53959;53.626;11.410;2023-09-08T06:14:56;1934.27;;;837.73;;
5137;SDS011;53959;53.626;11.410;2023-09-08T06:17:22;1938.00;;;836.63;;
5137;SDS011;53959;53.626;11.410;2023-09-08T06:19:48;1945.80;;;839.83;;
5137;SDS011;53959;53.626;11.410;2023-09-08T06:22:13;1951.23;;;839.27;;
5137;SDS011;53959;53.626;11.410;2023-09-08T06:24:38;1948.67;;;838.50;;
5137;SDS011;53959;53.626;11.410;2023-09-08T06:27:05;1951.80;;;838.37;;
5137;SDS011;53959;53.626;11.410;2023-09-08T06:29:30;1953.77;;;840.77;;
5137;SDS011;53959;53.626;11.410;2023-09-08T06:31:56;1945.00;;;838.53;;
5137;SDS011;53959;53.626;11.410;2023-09-08T06:34:21;1955.47;;;840.77;;
5137;SDS011;53959;53.626;11.410;2023-09-08T06:36:48;1929.23;;;839.83;;
5137;SDS011;53959;53.626;11.410;2023-09-08T06:39:14;1925.97;;;839.13;;
5137;SDS011;53959;53.626;11.410;2023-09-08T06:41:39;1926.93;;;840.07;;
5137;SDS011;53959;53.626;11.410;2023-09-08T06:44:06;1924.07;;;839.03;;
5137;SDS011;53959;53.626;11.410;2023-09-08T06:46:33;1906.73;;;835.77;;
5137;SDS011;53959;53.626;11.410;2023-09-08T06:48:58;1902.57;;;834.13;;
5137;SDS011;53959;53.626;11.410;2023-09-08T06:51:23;1913.70;;;837.87;;
5137;SDS011;53959;53.626;11.410;2023-09-08T06:53:53;1907.87;;;837.87;;
5137;SDS011;53959;53.626;11.410;2023-09-08T06:56:23;1898.00;;;839.77;;
5137;SDS011;53959;53.626;11.410;2023-09-08T06:58:49;1899.77;;;836.57;;
5137;SDS011;53959;53.626;11.410;2023-09-08T07:01:16;1920.37;;;839.40;;
5137;SDS011;53959;53.626;11.410;2023-09-08T07:03:41;1899.90;;;836.87;;
5137;SDS011;53959;53.626;11.410;2023-09-08T07:06:08;1904.03;;;834.63;;
5137;SDS011;53959;53.626;11.410;2023-09-08T07:08:34;1909.00;;;836.47;;
5137;SDS011;53959;53.626;11.410;2023-09-08T07:10:59;1893.77;;;834.33;;
5137;SDS011;53959;53.626;11.410;2023-09-08T07:13:24;1892.47;;;834.23;;
5137;SDS011;53959;53.626;11.410;2023-09-08T07:15:50;1894.67;;;836.63;;
5137;SDS011;53959;53.626;11.410;2023-09-08T07:18:15;1898.23;;;836.63;;
5137;SDS011;53959;53.626;11.410;2023-09-08T07:20:45;1893.57;;;836.67;;
5137;SDS011;53959;53.626;11.410;2023-09-08T07:23:11;1886.60;;;835.93;;
5137;SDS011;53959;53.626;11.410;2023-09-08T07:25:37;1878.23;;;833.83;;
5137;SDS011;53959;53.626;11.410;2023-09-08T07:28:02;1896.57;;;837.43;;
5137;SDS011;53959;53.626;11.410;2023-09-08T07:30:28;1897.93;;;836.97;;
5137;SDS011;53959;53.626;11.410;2023-09-08T07:32:53;1886.60;;;836.73;;
5137;SDS011;53959;53.626;11.410;2023-09-08T07:35:19;1882.07;;;836.23;;
5137;SDS011;53959;53.626;11.410;2023-09-08T07:37:45;1876.43;;;831.27;;
5137;SDS011;53959;53.626;11.410;2023-09-08T07:40:11;1890.83;;;836.57;;
5137;SDS011;53959;53.626;11.410;2023-09-08T07:42:37;1887.27;;;839.57;;
5137;SDS011;53959;53.626;11.410;2023-09-08T07:45:03;1905.47;;;840.93;;
5137;SDS011;53959;53.626;11.410;2023-09-08T07:47:28;1878.17;;;828.93;;
5137;SDS011;53959;53.626;11.410;2023-09-08T07:50:15;1900.23;;;839.27;;
5137;SDS011;53959;53.626;11.410;2023-09-08T07:52:53;1854.33;;;827.33;;
5137;SDS011;53959;53.626;11.410;2023-09-08T07:55:20;1888.10;;;829.67;;
5137;SDS011;53959;53.626;11.410;2023-09-08T07:57:52;1897.63;;;836.20;;
5137;SDS011;53959;53.626;11.410;2023-09-08T08:00:18;1919.93;;;836.23;;
5137;SDS011;53959;53.626;11.410;2023-09-08T08:02:48;1959.70;;;840.07;;
5137;SDS011;53959;53.626;11.410;2023-09-08T08:05:15;1955.00;;;841.77;;
5137;SDS011;53959;53.626;11.410;2023-09-08T08:07:41;1946.70;;;841.20;;
5137;SDS011;53959;53.626;11.410;2023-09-08T08:10:08;1921.57;;;844.70;;
5137;SDS011;53959;53.626;11.410;2023-09-08T08:12:34;1884.83;;;849.20;;
5137;SDS011;53959;53.626;11.410;2023-09-08T08:15:00;1875.93;;;849.90;;
5137;SDS011;53959;53.626;11.410;2023-09-08T08:17:25;1873.67;;;853.73;;
5137;SDS011;53959;53.626;11.410;2023-09-08T08:19:55;1878.17;;;859.07;;
5137;SDS011;53959;53.626;11.410;2023-09-08T08:22:21;1872.90;;;861.77;;
5137;SDS011;53959;53.626;11.410;2023-09-08T08:24:46;1909.13;;;882.33;;
5137;SDS011;53959;53.626;11.410;2023-09-08T08:27:12;1871.60;;;874.43;;
5137;SDS011;53959;53.626;11.410;2023-09-08T08:29:38;1880.70;;;874.40;;
5137;SDS011;53959;53.626;11.410;2023-09-08T08:32:04;1874.63;;;874.50;;
5137;SDS011;53959;53.626;11.410;2023-09-08T08:34:29;1899.83;;;881.27;;
5137;SDS011;53959;53.626;11.410;2023-09-08T08:36:55;1887.20;;;874.67;;
5137;SDS011;53959;53.626;11.410;2023-09-08T08:39:20;1897.43;;;878.00;;
5137;SDS011;53959;53.626;11.410;2023-09-08T08:41:45;1902.77;;;879.27;;
5137;SDS011;53959;53.626;11.410;2023-09-08T08:44:10;1905.80;;;879.37;;
5137;SDS011;53959;53.626;11.410;2023-09-08T08:46:37;1896.70;;;879.67;;
5137;SDS011;53959;53.626;11.410;2023-09-08T08:49:03;1922.93;;;895.00;;
5137;SDS011;53959;53.626;11.410;2023-09-08T08:51:32;1898.23;;;882.53;;
5137;SDS011;53959;53.626;11.410;2023-09-08T08:53:58;1858.27;;;869.83;;
5137;SDS011;53959;53.626;11.410;2023-09-08T08:56:25;1813.23;;;852.93;;
5137;SDS011;53959;53.626;11.410;2023-09-08T08:58:51;1795.80;;;851.50;;
5137;SDS011;53959;53.626;11.410;2023-09-08T09:01:17;1783.43;;;845.10;;
5137;SDS011;53959;53.626;11.410;2023-09-08T09:03:46;1769.20;;;844.00;;
5137;SDS011;53959;53.626;11.410;2023-09-08T09:06:16;1764.37;;;843.70;;
5137;SDS011;53959;53.626;11.410;2023-09-08T09:08:43;1780.43;;;843.07;;
5137;SDS011;53959;53.626;11.410;2023-09-08T09:11:09;1773.47;;;841.67;;
5137;SDS011;53959;53.626;11.410;2023-09-08T09:13:35;1774.93;;;841.57;;
5137;SDS011;53959;53.626;11.410;2023-09-08T09:16:00;1771.27;;;840.10;;
5137;SDS011;53959;53.626;11.410;2023-09-08T09:18:28;1769.23;;;840.40;;
5137;SDS011;53959;53.626;11.410;2023-09-08T09:20:55;1776.43;;;840.83;;
5137;SDS011;53959;53.626;11.410;2023-09-08T09:23:30;1767.80;;;837.40;;
5137;SDS011;53959;53.626;11.410;2023-09-08T09:26:00;1776.30;;;843.40;;
5137;SDS011;53959;53.626;11.410;2023-09-08T09:28:29;1781.53;;;840.87;;
5137;SDS011;53959;53.626;11.410;2023-09-08T09:30:54;1779.70;;;841.80;;
5137;SDS011;53959;53.626;11.410;2023-09-08T09:33:21;1784.40;;;842.80;;
5137;SDS011;53959;53.626;11.410;2023-09-08T09:35:48;1792.23;;;843.07;;
5137;SDS011;53959;53.626;11.410;2023-09-08T09:38:18;1785.07;;;839.90;;
5137;SDS011;53959;53.626;11.410;2023-09-08T09:40:45;1790.30;;;843.20;;
5137;SDS011;53959;53.626;11.410;2023-09-08T09:43:12;1792.97;;;840.60;;
5137;SDS011;53959;53.626;11.410;2023-09-08T09:45:39;1793.17;;;839.90;;
5137;SDS011;53959;53.626;11.410;2023-09-08T09:48:05;1790.13;;;839.63;;
5137;SDS011;53959;53.626;11.410;2023-09-08T09:50:33;1794.93;;;839.70;;
5137;SDS011;53959;53.626;11.410;2023-09-08T09:53:08;1785.67;;;839.73;;
5137;SDS011;53959;53.626;11.410;2023-09-08T09:55:36;1794.30;;;841.27;;
5137;SDS011;53959;53.626;11.410;2023-09-08T09:58:04;1798.60;;;840.73;;
5137;SDS011;53959;53.626;11.410;2023-09-08T10:00:30;1798.50;;;839.10;;
5137;SDS011;53959;53.626;11.410;2023-09-08T10:02:58;1801.20;;;840.13;;
5137;SDS011;53959;53.626;11.410;2023-09-08T10:05:24;1801.27;;;841.10;;
5137;SDS011;53959;53.626;11.410;2023-09-08T10:07:50;1799.50;;;838.53;;
5137;SDS011;53959;53.626;11.410;2023-09-08T10:10:16;1810.27;;;840.90;;
5137;SDS011;53959;53.626;11.410;2023-09-08T10:12:46;1814.43;;;839.90;;
5137;SDS011;53959;53.626;11.410;2023-09-08T10:15:18;1811.07;;;841.57;;
5137;SDS011;53959;53.626;11.410;2023-09-08T10:17:46;1819.53;;;841.53;;
5137;SDS011;53959;53.626;11.410;2023-09-08T10:20:15;1822.07;;;842.23;;
5137;SDS011;53959;53.626;11.410;2023-09-08T10:22:42;1825.73;;;839.60;;
5137;SDS011;53959;53.626;11.410;2023-09-08T10:25:08;1826.87;;;840.10;;
5137;SDS011;53959;53.626;11.410;2023-09-08T10:27:35;1824.23;;;840.33;;
5137;SDS011;53959;53.626;11.410;2023-09-08T10:30:05;1819.90;;;837.87;;
5137;SDS011;53959;53.626;11.410;2023-09-08T10:32:32;1817.00;;;837.93;;
5137;SDS011;53959;53.626;11.410;2023-09-08T10:35:00;1831.10;;;841.50;;
5137;SDS011;53959;53.626;11.410;2023-09-08T10:37:27;1827.00;;;839.23;;
5137;SDS011;53959;53.626;11.410;2023-09-08T10:39:56;1829.37;;;839.97;;
5137;SDS011;53959;53.626;11.410;2023-09-08T10:42:41;1822.17;;;842.03;;
5137;SDS011;53959;53.626;11.410;2023-09-08T10:45:19;1828.83;;;839.27;;
5137;SDS011;53959;53.626;11.410;2023-09-08T10:50:17;1840.00;;;840.57;;
5137;SDS011;53959;53.626;11.410;2023-09-08T10:53:07;1829.60;;;840.47;;
5137;SDS011;53959;53.626;11.410;2023-09-08T10:55:39;1825.43;;;839.60;;
5137;SDS011;53959;53.626;11.410;2023-09-08T10:58:08;1844.80;;;842.60;;
5137;SDS011;53959;53.626;11.410;2023-09-08T11:00:45;1838.20;;;839.70;;
5137;SDS011;53959;53.626;11.410;2023-09-08T11:03:12;1839.67;;;842.27;;
5137;SDS011;53959;53.626;11.410;2023-09-08T11:05:38;1834.07;;;836.87;;
5137;SDS011;53959;53.626;11.410;2023-09-08T11:08:04;1829.77;;;838.67;;
5137;SDS011;53959;53.626;11.410;2023-09-08T11:10:30;1833.00;;;840.67;;
5137;SDS011;53959;53.626;11.410;2023-09-08T11:12:58;1829.47;;;839.23;;
5137;SDS011;53959;53.626;11.410;2023-09-08T11:15:25;1884.77;;;843.50;;
5137;SDS011;53959;53.626;11.410;2023-09-08T11:17:50;1861.80;;;839.63;;
5137;SDS011;53959;53.626;11.410;2023-09-08T11:20:25;1856.50;;;843.37;;
5137;SDS011;53959;53.626;11.410;2023-09-08T11:22:51;1860.97;;;841.37;;
5137;SDS011;53959;53.626;11.410;2023-09-08T11:25:16;1870.03;;;844.33;;
5137;SDS011;53959;53.626;11.410;2023-09-08T11:27:42;1855.20;;;846.77;;
5137;SDS011;53959;53.626;11.410;2023-09-08T11:30:09;1877.90;;;846.23;;
5137;SDS011;53959;53.626;11.410;2023-09-08T11:32:35;1873.87;;;844.37;;
5137;SDS011;53959;53.626;11.410;2023-09-08T11:35:04;1856.13;;;847.33;;
5137;SDS011;53959;53.626;11.410;2023-09-08T11:37:34;1868.30;;;844.83;;
5137;SDS011;53959;53.626;11.410;2023-09-08T11:40:01;1869.57;;;848.90;;
5137;SDS011;53959;53.626;11.410;2023-09-08T11:42:28;1856.60;;;844.67;;
5137;SDS011;53959;53.626;11.410;2023-09-08T11:44:53;1865.77;;;847.57;;
5137;SDS011;53959;53.626;11.410;2023-09-08T11:47:22;1856.93;;;844.40;;
5137;SDS011;53959;53.626;11.410;2023-09-08T11:49:47;1864.40;;;841.47;;
5137;SDS011;53959;53.626;11.410;2023-09-08T11:52:12;1865.70;;;848.10;;
5137;SDS011;53959;53.626;11.410;2023-09-08T11:54:38;1860.47;;;845.27;;
5137;SDS011;53959;53.626;11.410;2023-09-08T11:57:04;1866.67;;;844.57;;
5137;SDS011;53959;53.626;11.410;2023-09-08T11:59:33;1873.43;;;845.97;;
5137;SDS011;53959;53.626;11.410;2023-09-08T12:01:59;1861.53;;;852.67;;
5137;SDS011;53959;53.626;11.410;2023-09-08T12:04:25;1848.53;;;849.00;;
5137;SDS011;53959;53.626;11.410;2023-09-08T12:06:52;1857.77;;;850.43;;
5137;SDS011;53959;53.626;11.410;2023-09-08T12:09:20;1842.30;;;844.57;;
5137;SDS011;53959;53.626;11.410;2023-09-08T12:11:45;1859.50;;;849.83;;
5137;SDS011;53959;53.626;11.410;2023-09-08T12:14:11;1854.03;;;846.90;;
5137;SDS011;53959;53.626;11.410;2023-09-08T12:16:38;1846.33;;;841.07;;
5137;SDS011;53959;53.626;11.410;2023-09-08T12:19:04;1869.83;;;853.33;;
5137;SDS011;53959;53.626;11.410;2023-09-08T12:21:29;1858.47;;;851.50;;
5137;SDS011;53959;53.626;11.410;2023-09-08T12:23:57;1860.17;;;850.27;;
5137;SDS011;53959;53.626;11.410;2023-09-08T12:26:24;1861.27;;;850.00;;
5137;SDS011;53959;53.626;11.410;2023-09-08T12:28:49;1862.03;;;850.57;;
5137;SDS011;53959;53.626;11.410;2023-09-08T12:31:16;1836.10;;;847.20;;
5137;SDS011;53959;53.626;11.410;2023-09-08T12:33:42;1843.17;;;846.97;;
5137;SDS011;53959;53.626;11.410;2023-09-08T12:36:18;1844.30;;;848.47;;
5137;SDS011;53959;53.626;11.410;2023-09-08T12:38:51;1834.27;;;850.87;;
5137;SDS011;53959;53.626;11.410;2023-09-08T12:41:17;1831.23;;;850.33;;
5137;SDS011;53959;53.626;11.410;2023-09-08T12:43:43;1832.73;;;843.50;;
5137;SDS011;53959;53.626;11.410;2023-09-08T12:46:08;1853.23;;;848.43;;
5137;SDS011;53959;53.626;11.410;2023-09-08T12:48:34;1849.73;;;854.43;;
5137;SDS011;53959;53.626;11.410;2023-09-08T12:50:59;1850.90;;;849.73;;
5137;SDS011;53959;53.626;11.410;2023-09-08T12:53:24;1855.87;;;861.90;;
5137;SDS011;53959;53.626;11.410;2023-09-08T12:55:50;1902.67;;;876.20;;
5137;SDS011;53959;53.626;11.410;2023-09-08T12:58:16;1937.20;;;877.33;;
5137;SDS011;53959;53.626;11.410;2023-09-08T13:00:42;1900.73;;;868.30;;
5137;SDS011;53959;53.626;11.410;2023-09-08T13:03:08;1890.87;;;864.93;;
5137;SDS011;53959;53.626;11.410;2023-09-08T13:05:33;1983.67;;;913.73;;
5137;SDS011;53959;53.626;11.410;2023-09-08T13:07:59;1983.03;;;915.73;;
5137;SDS011;53959;53.626;11.410;2023-09-08T13:10:24;1991.87;;;921.00;;
5137;SDS011;53959;53.626;11.410;2023-09-08T13:12:50;1834.17;;;859.13;;
5137;SDS011;53959;53.626;11.410;2023-09-08T13:15:15;1814.67;;;852.13;;
5137;SDS011;53959;53.626;11.410;2023-09-08T13:17:41;1854.40;;;872.97;;
5137;SDS011;53959;53.626;11.410;2023-09-08T13:20:06;1829.13;;;868.50;;
5137;SDS011;53959;53.626;11.410;2023-09-08T13:22:33;1802.43;;;856.77;;
5137;SDS011;53959;53.626;11.410;2023-09-08T13:24:59;1782.30;;;850.23;;
5137;SDS011;53959;53.626;11.410;2023-09-08T13:27:24;1776.50;;;849.30;;
5137;SDS011;53959;53.626;11.410;2023-09-08T13:29:50;1771.27;;;845.37;;
5137;SDS011;53959;53.626;11.410;2023-09-08T13:32:15;1775.43;;;846.20;;
5137;SDS011;53959;53.626;11.410;2023-09-08T13:34:41;1775.47;;;844.83;;
5137;SDS011;53959;53.626;11.410;2023-09-08T13:37:08;1772.03;;;842.13;;
5137;SDS011;53959;53.626;11.410;2023-09-08T13:39:34;1782.43;;;847.63;;
5137;SDS011;53959;53.626;11.410;2023-09-08T13:42:00;1786.87;;;850.97;;
5137;SDS011;53959;53.626;11.410;2023-09-08T13:44:26;1785.57;;;847.27;;
5137;SDS011;53959;53.626;11.410;2023-09-08T13:46:52;1780.63;;;845.60;;